sensor_id;sensor_type;location;lat;lon;timestamp;pressure;altitude;pressure_sealevel;temperature
15079;BMP180;6932;51.438;5.470;2022-09-28T00:01:14;99219.00;;;14.60
15079;BMP180;6932;51.438;5.470;2022-09-28T00:03:40;99211.00;;;14.60
15079;BMP180;6932;51.438;5.470;2022-09-28T00:06:09;99210.00;;;14.60
15079;BMP180;6932;51.438;5.470;2022-09-28T00:08:36;99226.00;;;14.60
15079;BMP180;6932;51.438;5.470;2022-09-28T00:11:05;99223.00;;;14.60
15079;BMP180;6932;51.438;5.470;2022-09-28T00:13:31;99221.00;;;14.60
15079;BMP180;6932;51.438;5.470;2022-09-28T00:16:07;99221.00;;;14.60
15079;BMP180;6932;51.438;5.470;2022-09-28T00:18:34;99223.00;;;14.60
15079;BMP180;6932;51.438;5.470;2022-09-28T00:21:10;99219.00;;;14.60
15079;BMP180;6932;51.438;5.470;2022-09-28T00:23:40;99227.00;;;14.60
15079;BMP180;6932;51.438;5.470;2022-09-28T00:26:30;99223.00;;;14.50
15079;BMP180;6932;51.438;5.470;2022-09-28T00:28:58;99222.00;;;14.50
15079;BMP180;6932;51.438;5.470;2022-09-28T00:31:27;99213.00;;;14.60
15079;BMP180;6932;51.438;5.470;2022-09-28T00:33:55;99214.00;;;14.50
15079;BMP180;6932;51.438;5.470;2022-09-28T00:36:26;99213.00;;;14.50
15079;BMP180;6932;51.438;5.470;2022-09-28T00:38:54;99213.00;;;14.60
15079;BMP180;6932;51.438;5.470;2022-09-28T00:41:23;99208.00;;;14.60
15079;BMP180;6932;51.438;5.470;2022-09-28T00:43:49;99208.00;;;14.60
15079;BMP180;6932;51.438;5.470;2022-09-28T00:46:31;99210.00;;;14.60
15079;BMP180;6932;51.438;5.470;2022-09-28T00:49:04;99201.00;;;14.60
15079;BMP180;6932;51.438;5.470;2022-09-28T00:51:35;99204.00;;;14.60
15079;BMP180;6932;51.438;5.470;2022-09-28T00:54:06;99204.00;;;14.60
15079;BMP180;6932;51.438;5.470;2022-09-28T00:56:37;99195.00;;;14.60
15079;BMP180;6932;51.438;5.470;2022-09-28T00:59:07;99198.00;;;14.60
15079;BMP180;6932;51.438;5.470;2022-09-28T01:01:33;99184.00;;;14.60
15079;BMP180;6932;51.438;5.470;2022-09-28T01:04:01;99199.00;;;14.60
15079;BMP180;6932;51.438;5.470;2022-09-28T01:06:31;99189.00;;;14.70
15079;BMP180;6932;51.438;5.470;2022-09-28T01:09:03;99181.00;;;14.70
15079;BMP180;6932;51.438;5.470;2022-09-28T01:11:31;99185.00;;;14.60
15079;BMP180;6932;51.438;5.470;2022-09-28T01:13:58;99177.00;;;14.70
15079;BMP180;6932;51.438;5.470;2022-09-28T01:25:46;99186.00;;;14.70
15079;BMP180;6932;51.438;5.470;2022-09-28T01:28:20;99186.00;;;14.60
15079;BMP180;6932;51.438;5.470;2022-09-28T01:31:11;99189.00;;;14.70
15079;BMP180;6932;51.438;5.470;2022-09-28T01:33:56;99195.00;;;14.70
15079;BMP180;6932;51.438;5.470;2022-09-28T01:36:35;99191.00;;;14.70
15079;BMP180;6932;51.438;5.470;2022-09-28T01:39:21;99195.00;;;14.70
15079;BMP180;6932;51.438;5.470;2022-09-28T01:41:51;99186.00;;;14.70
15079;BMP180;6932;51.438;5.470;2022-09-28T01:44:21;99192.00;;;14.80
15079;BMP180;6932;51.438;5.470;2022-09-28T01:46:51;99191.00;;;14.80
15079;BMP180;6932;51.438;5.470;2022-09-28T01:49:32;99199.00;;;14.80
15079;BMP180;6932;51.438;5.470;2022-09-28T01:55:18;99208.00;;;14.80
15079;BMP180;6932;51.438;5.470;2022-09-28T01:57:54;99203.00;;;14.80
15079;BMP180;6932;51.438;5.470;2022-09-28T02:00:23;99196.00;;;14.80
15079;BMP180;6932;51.438;5.470;2022-09-28T02:03:11;99194.00;;;14.80
15079;BMP180;6932;51.438;5.470;2022-09-28T02:05:42;99193.00;;;14.80
15079;BMP180;6932;51.438;5.470;2022-09-28T02:11:15;99195.00;;;14.80
15079;BMP180;6932;51.438;5.470;2022-09-28T02:14:04;99191.00;;;14.80
15079;BMP180;6932;51.438;5.470;2022-09-28T02:16:47;99199.00;;;14.80
15079;BMP180;6932;51.438;5.470;2022-09-28T02:19:18;99192.00;;;14.80
15079;BMP180;6932;51.438;5.470;2022-09-28T02:25:05;99197.00;;;14.80
15079;BMP180;6932;51.438;5.470;2022-09-28T02:27:41;99193.00;;;14.80
15079;BMP180;6932;51.438;5.470;2022-09-28T02:30:08;99189.00;;;14.80
15079;BMP180;6932;51.438;5.470;2022-09-28T02:32:38;99190.00;;;14.80
15079;BMP180;6932;51.438;5.470;2022-09-28T02:35:17;99195.00;;;14.80
15079;BMP180;6932;51.438;5.470;2022-09-28T02:37:44;99196.00;;;14.80
15079;BMP180;6932;51.438;5.470;2022-09-28T02:40:34;99185.00;;;14.80
15079;BMP180;6932;51.438;5.470;2022-09-28T02:43:31;99191.00;;;14.80
15079;BMP180;6932;51.438;5.470;2022-09-28T02:46:26;99197.00;;;14.80
15079;BMP180;6932;51.438;5.470;2022-09-28T02:49:10;99202.00;;;14.70
15079;BMP180;6932;51.438;5.470;2022-09-28T02:51:52;99193.00;;;14.70
15079;BMP180;6932;51.438;5.470;2022-09-28T02:57:20;99206.00;;;14.70
15079;BMP180;6932;51.438;5.470;2022-09-28T03:00:10;99204.00;;;14.70
15079;BMP180;6932;51.438;5.470;2022-09-28T03:03:07;99208.00;;;14.60
15079;BMP180;6932;51.438;5.470;2022-09-28T03:06:07;99194.00;;;14.60
15079;BMP180;6932;51.438;5.470;2022-09-28T03:09:00;99204.00;;;14.60
15079;BMP180;6932;51.438;5.470;2022-09-28T03:11:36;99203.00;;;14.60
15079;BMP180;6932;51.438;5.470;2022-09-28T03:14:04;99204.00;;;14.60
15079;BMP180;6932;51.438;5.470;2022-09-28T03:16:30;99207.00;;;14.60
15079;BMP180;6932;51.438;5.470;2022-09-28T03:18:57;99200.00;;;14.50
15079;BMP180;6932;51.438;5.470;2022-09-28T03:21:23;99204.00;;;14.50
15079;BMP180;6932;51.438;5.470;2022-09-28T03:23:48;99209.00;;;14.60
15079;BMP180;6932;51.438;5.470;2022-09-28T03:26:14;99207.00;;;14.50
15079;BMP180;6932;51.438;5.470;2022-09-28T03:28:42;99210.00;;;14.50
15079;BMP180;6932;51.438;5.470;2022-09-28T03:31:08;99208.00;;;14.50
15079;BMP180;6932;51.438;5.470;2022-09-28T03:33:33;99210.00;;;14.50
15079;BMP180;6932;51.438;5.470;2022-09-28T03:35:59;99209.00;;;14.50
15079;BMP180;6932;51.438;5.470;2022-09-28T03:38:25;99211.00;;;14.50
15079;BMP180;6932;51.438;5.470;2022-09-28T03:40:59;99198.00;;;14.50
15079;BMP180;6932;51.438;5.470;2022-09-28T03:43:26;99204.00;;;14.50
15079;BMP180;6932;51.438;5.470;2022-09-28T03:45:57;99203.00;;;14.50
15079;BMP180;6932;51.438;5.470;2022-09-28T03:48:29;99198.00;;;14.50
15079;BMP180;6932;51.438;5.470;2022-09-28T03:50:57;99200.00;;;14.50
15079;BMP180;6932;51.438;5.470;2022-09-28T03:53:24;99200.00;;;14.50
15079;BMP180;6932;51.438;5.470;2022-09-28T03:55:51;99207.00;;;14.50
15079;BMP180;6932;51.438;5.470;2022-09-28T03:58:21;99211.00;;;14.50
15079;BMP180;6932;51.438;5.470;2022-09-28T04:00:48;99217.00;;;14.50
15079;BMP180;6932;51.438;5.470;2022-09-28T04:03:14;99213.00;;;14.50
15079;BMP180;6932;51.438;5.470;2022-09-28T04:05:51;99211.00;;;14.60
15079;BMP180;6932;51.438;5.470;2022-09-28T04:08:17;99211.00;;;14.50
15079;BMP180;6932;51.438;5.470;2022-09-28T04:10:43;99214.00;;;14.50
15079;BMP180;6932;51.438;5.470;2022-09-28T04:13:09;99202.00;;;14.50
15079;BMP180;6932;51.438;5.470;2022-09-28T04:15:35;99208.00;;;14.50
15079;BMP180;6932;51.438;5.470;2022-09-28T04:18:09;99207.00;;;14.50
15079;BMP180;6932;51.438;5.470;2022-09-28T04:20:36;99207.00;;;14.50
15079;BMP180;6932;51.438;5.470;2022-09-28T04:23:03;99210.00;;;14.50
15079;BMP180;6932;51.438;5.470;2022-09-28T04:25:28;99207.00;;;14.50
15079;BMP180;6932;51.438;5.470;2022-09-28T04:27:54;99211.00;;;14.50
15079;BMP180;6932;51.438;5.470;2022-09-28T04:30:38;99218.00;;;14.50
15079;BMP180;6932;51.438;5.470;2022-09-28T04:33:04;99209.00;;;14.50
15079;BMP180;6932;51.438;5.470;2022-09-28T04:35:29;99211.00;;;14.50
15079;BMP180;6932;51.438;5.470;2022-09-28T04:37:55;99209.00;;;14.50
15079;BMP180;6932;51.438;5.470;2022-09-28T04:40:21;99209.00;;;14.60
15079;BMP180;6932;51.438;5.470;2022-09-28T04:42:55;99210.00;;;14.60
15079;BMP180;6932;51.438;5.470;2022-09-28T04:45:22;99208.00;;;14.60
15079;BMP180;6932;51.438;5.470;2022-09-28T04:47:50;99207.00;;;14.50
15079;BMP180;6932;51.438;5.470;2022-09-28T04:50:16;99207.00;;;14.60
15079;BMP180;6932;51.438;5.470;2022-09-28T04:52:42;99203.00;;;14.50
15079;BMP180;6932;51.438;5.470;2022-09-28T04:55:11;99208.00;;;14.50
15079;BMP180;6932;51.438;5.470;2022-09-28T04:57:38;99206.00;;;14.50
15079;BMP180;6932;51.438;5.470;2022-09-28T05:00:05;99209.00;;;14.50
15079;BMP180;6932;51.438;5.470;2022-09-28T05:02:31;99210.00;;;14.50
15079;BMP180;6932;51.438;5.470;2022-09-28T05:04:56;99209.00;;;14.50
15079;BMP180;6932;51.438;5.470;2022-09-28T05:07:24;99207.00;;;14.50
15079;BMP180;6932;51.438;5.470;2022-09-28T05:09:51;99204.00;;;14.50
15079;BMP180;6932;51.438;5.470;2022-09-28T05:12:17;99207.00;;;14.50
15079;BMP180;6932;51.438;5.470;2022-09-28T05:14:43;99214.00;;;14.50
15079;BMP180;6932;51.438;5.470;2022-09-28T05:17:09;99227.00;;;14.40
15079;BMP180;6932;51.438;5.470;2022-09-28T05:19:35;99220.00;;;14.40
15079;BMP180;6932;51.438;5.470;2022-09-28T05:22:01;99222.00;;;14.40
15079;BMP180;6932;51.438;5.470;2022-09-28T05:24:29;99217.00;;;14.40
15079;BMP180;6932;51.438;5.470;2022-09-28T05:26:55;99218.00;;;14.40
15079;BMP180;6932;51.438;5.470;2022-09-28T05:29:21;99226.00;;;14.30
15079;BMP180;6932;51.438;5.470;2022-09-28T05:31:47;99235.00;;;14.30
15079;BMP180;6932;51.438;5.470;2022-09-28T05:34:13;99229.00;;;14.30
15079;BMP180;6932;51.438;5.470;2022-09-28T05:36:39;99219.00;;;14.30
15079;BMP180;6932;51.438;5.470;2022-09-28T05:39:07;99229.00;;;14.30
15079;BMP180;6932;51.438;5.470;2022-09-28T05:41:34;99224.00;;;14.30
15079;BMP180;6932;51.438;5.470;2022-09-28T05:44:00;99223.00;;;14.30
15079;BMP180;6932;51.438;5.470;2022-09-28T05:46:26;99226.00;;;14.30
15079;BMP180;6932;51.438;5.470;2022-09-28T05:48:52;99220.00;;;14.30
15079;BMP180;6932;51.438;5.470;2022-09-28T05:51:19;99129.00;;;14.30
15079;BMP180;6932;51.438;5.470;2022-09-28T05:53:45;99137.00;;;14.10
15079;BMP180;6932;51.438;5.470;2022-09-28T05:56:11;99136.00;;;13.80
15079;BMP180;6932;51.438;5.470;2022-09-28T05:58:37;99149.00;;;13.60
15079;BMP180;6932;51.438;5.470;2022-09-28T06:01:03;99143.00;;;13.40
15079;BMP180;6932;51.438;5.470;2022-09-28T06:03:28;99147.00;;;13.20
15079;BMP180;6932;51.438;5.470;2022-09-28T06:05:54;99151.00;;;13.10
15079;BMP180;6932;51.438;5.470;2022-09-28T06:08:20;99237.00;;;13.00
15079;BMP180;6932;51.438;5.470;2022-09-28T06:10:46;99245.00;;;13.10
15079;BMP180;6932;51.438;5.470;2022-09-28T06:13:11;99254.00;;;13.20
15079;BMP180;6932;51.438;5.470;2022-09-28T06:15:40;99250.00;;;13.40
15079;BMP180;6932;51.438;5.470;2022-09-28T06:18:12;99254.00;;;13.60
15079;BMP180;6932;51.438;5.470;2022-09-28T06:20:41;99252.00;;;13.60
15079;BMP180;6932;51.438;5.470;2022-09-28T06:23:12;99259.00;;;13.80
15079;BMP180;6932;51.438;5.470;2022-09-28T06:25:38;99247.00;;;13.90
15079;BMP180;6932;51.438;5.470;2022-09-28T06:28:13;99255.00;;;14.00
15079;BMP180;6932;51.438;5.470;2022-09-28T06:30:40;99251.00;;;14.00
15079;BMP180;6932;51.438;5.470;2022-09-28T06:33:11;99255.00;;;14.10
15079;BMP180;6932;51.438;5.470;2022-09-28T06:35:37;99260.00;;;14.10
15079;BMP180;6932;51.438;5.470;2022-09-28T06:38:04;99262.00;;;14.20
15079;BMP180;6932;51.438;5.470;2022-09-28T06:40:30;99264.00;;;14.30
15079;BMP180;6932;51.438;5.470;2022-09-28T06:43:00;99257.00;;;14.40
15079;BMP180;6932;51.438;5.470;2022-09-28T06:45:29;99260.00;;;14.60
15079;BMP180;6932;51.438;5.470;2022-09-28T06:48:00;99266.00;;;14.80
15079;BMP180;6932;51.438;5.470;2022-09-28T06:50:30;99265.00;;;14.90
15079;BMP180;6932;51.438;5.470;2022-09-28T06:53:00;99269.00;;;15.10
15079;BMP180;6932;51.438;5.470;2022-09-28T06:55:27;99275.00;;;15.30
15079;BMP180;6932;51.438;5.470;2022-09-28T06:58:03;99263.00;;;15.50
15079;BMP180;6932;51.438;5.470;2022-09-28T07:00:35;99264.00;;;15.60
15079;BMP180;6932;51.438;5.470;2022-09-28T07:03:04;99266.00;;;15.80
15079;BMP180;6932;51.438;5.470;2022-09-28T07:05:34;99270.00;;;16.00
15079;BMP180;6932;51.438;5.470;2022-09-28T07:08:05;99272.00;;;16.10
15079;BMP180;6932;51.438;5.470;2022-09-28T07:10:31;99279.00;;;16.30
15079;BMP180;6932;51.438;5.470;2022-09-28T07:13:00;99280.00;;;16.50
15079;BMP180;6932;51.438;5.470;2022-09-28T07:15:27;99284.00;;;16.70
15079;BMP180;6932;51.438;5.470;2022-09-28T07:18:02;99284.00;;;16.80
15079;BMP180;6932;51.438;5.470;2022-09-28T07:20:29;99282.00;;;16.90
15079;BMP180;6932;51.438;5.470;2022-09-28T07:22:56;99276.00;;;17.00
15079;BMP180;6932;51.438;5.470;2022-09-28T07:25:23;99284.00;;;17.10
15079;BMP180;6932;51.438;5.470;2022-09-28T07:27:53;99279.00;;;17.20
15079;BMP180;6932;51.438;5.470;2022-09-28T07:30:20;99283.00;;;17.40
15079;BMP180;6932;51.438;5.470;2022-09-28T07:32:46;99285.00;;;17.50
15079;BMP180;6932;51.438;5.470;2022-09-28T07:35:13;99288.00;;;17.60
15079;BMP180;6932;51.438;5.470;2022-09-28T07:37:39;99282.00;;;17.70
15079;BMP180;6932;51.438;5.470;2022-09-28T07:40:07;99296.00;;;17.70
15079;BMP180;6932;51.438;5.470;2022-09-28T07:42:52;99289.00;;;17.70
15079;BMP180;6932;51.438;5.470;2022-09-28T07:45:18;99291.00;;;17.70
15079;BMP180;6932;51.438;5.470;2022-09-28T07:47:54;99293.00;;;17.70
15079;BMP180;6932;51.438;5.470;2022-09-28T07:50:20;99305.00;;;17.80
15079;BMP180;6932;51.438;5.470;2022-09-28T07:52:46;99300.00;;;17.90
15079;BMP180;6932;51.438;5.470;2022-09-28T07:55:12;99294.00;;;18.10
15079;BMP180;6932;51.438;5.470;2022-09-28T07:57:38;99308.00;;;18.20
15079;BMP180;6932;51.438;5.470;2022-09-28T08:00:05;99308.00;;;18.30
15079;BMP180;6932;51.438;5.470;2022-09-28T08:02:34;99304.00;;;18.50
15079;BMP180;6932;51.438;5.470;2022-09-28T08:05:01;99304.00;;;18.60
15079;BMP180;6932;51.438;5.470;2022-09-28T08:07:27;99306.00;;;18.70
15079;BMP180;6932;51.438;5.470;2022-09-28T08:09:53;99316.00;;;18.90
15079;BMP180;6932;51.438;5.470;2022-09-28T08:12:20;99317.00;;;19.00
15079;BMP180;6932;51.438;5.470;2022-09-28T08:14:47;99311.00;;;19.10
15079;BMP180;6932;51.438;5.470;2022-09-28T08:17:12;99315.00;;;19.30
15079;BMP180;6932;51.438;5.470;2022-09-28T08:19:39;99315.00;;;19.40
15079;BMP180;6932;51.438;5.470;2022-09-28T08:22:23;99320.00;;;19.50
15079;BMP180;6932;51.438;5.470;2022-09-28T08:24:49;99325.00;;;19.60
15079;BMP180;6932;51.438;5.470;2022-09-28T08:27:15;99325.00;;;19.60
15079;BMP180;6932;51.438;5.470;2022-09-28T08:29:42;99319.00;;;19.70
15079;BMP180;6932;51.438;5.470;2022-09-28T08:32:09;99323.00;;;19.80
15079;BMP180;6932;51.438;5.470;2022-09-28T08:34:40;99337.00;;;19.90
15079;BMP180;6932;51.438;5.470;2022-09-28T08:37:07;99335.00;;;20.00
15079;BMP180;6932;51.438;5.470;2022-09-28T08:39:36;99326.00;;;20.10
15079;BMP180;6932;51.438;5.470;2022-09-28T08:42:34;99332.00;;;20.20
15079;BMP180;6932;51.438;5.470;2022-09-28T08:45:10;99335.00;;;20.30
15079;BMP180;6932;51.438;5.470;2022-09-28T08:48:27;99339.00;;;20.30
15079;BMP180;6932;51.438;5.470;2022-09-28T08:54:03;99345.00;;;20.30
15079;BMP180;6932;51.438;5.470;2022-09-28T08:56:54;99345.00;;;20.40
15079;BMP180;6932;51.438;5.470;2022-09-28T08:59:40;99354.00;;;20.50
15079;BMP180;6932;51.438;5.470;2022-09-28T09:02:31;99355.00;;;20.60
15079;BMP180;6932;51.438;5.470;2022-09-28T09:05:02;99362.00;;;20.70
15079;BMP180;6932;51.438;5.470;2022-09-28T09:08:00;99357.00;;;20.80
15079;BMP180;6932;51.438;5.470;2022-09-28T09:10:51;99355.00;;;20.90
15079;BMP180;6932;51.438;5.470;2022-09-28T09:13:44;99367.00;;;21.00
15079;BMP180;6932;51.438;5.470;2022-09-28T09:19:45;99287.00;;;20.70
15079;BMP180;6932;51.438;5.470;2022-09-28T09:22:40;99293.00;;;20.40
15079;BMP180;6932;51.438;5.470;2022-09-28T09:25:48;99305.00;;;20.20
15079;BMP180;6932;51.438;5.470;2022-09-28T09:31:54;99297.00;;;19.80
15079;BMP180;6932;51.438;5.470;2022-09-28T09:41:00;99389.00;;;20.00
15079;BMP180;6932;51.438;5.470;2022-09-28T09:49:21;99398.00;;;20.40
15079;BMP180;6932;51.438;5.470;2022-09-28T09:52:28;99402.00;;;20.50
15079;BMP180;6932;51.438;5.470;2022-09-28T09:55:14;99400.00;;;20.70
15079;BMP180;6932;51.438;5.470;2022-09-28T09:57:48;99390.00;;;20.80
15079;BMP180;6932;51.438;5.470;2022-09-28T10:00:17;99390.00;;;21.00
15079;BMP180;6932;51.438;5.470;2022-09-28T10:02:47;99394.00;;;21.00
15079;BMP180;6932;51.438;5.470;2022-09-28T10:05:33;99392.00;;;21.10
15079;BMP180;6932;51.438;5.470;2022-09-28T10:10:37;99390.00;;;21.10
15079;BMP180;6932;51.438;5.470;2022-09-28T10:13:04;99399.00;;;21.10
15079;BMP180;6932;51.438;5.470;2022-09-28T10:15:32;99390.00;;;21.10
15079;BMP180;6932;51.438;5.470;2022-09-28T10:18:10;99402.00;;;21.20
15079;BMP180;6932;51.438;5.470;2022-09-28T10:20:40;99401.00;;;21.30
15079;BMP180;6932;51.438;5.470;2022-09-28T10:23:18;99383.00;;;21.30
15079;BMP180;6932;51.438;5.470;2022-09-28T10:25:51;99390.00;;;21.40
15079;BMP180;6932;51.438;5.470;2022-09-28T10:28:32;99389.00;;;21.40
15079;BMP180;6932;51.438;5.470;2022-09-28T10:30:59;99392.00;;;21.40
15079;BMP180;6932;51.438;5.470;2022-09-28T10:33:32;99388.00;;;21.50
15079;BMP180;6932;51.438;5.470;2022-09-28T10:36:05;99384.00;;;21.50
15079;BMP180;6932;51.438;5.470;2022-09-28T10:38:33;99389.00;;;21.50
15079;BMP180;6932;51.438;5.470;2022-09-28T10:41:10;99380.00;;;21.50
15079;BMP180;6932;51.438;5.470;2022-09-28T10:43:54;99396.00;;;21.60
15079;BMP180;6932;51.438;5.470;2022-09-28T10:46:35;99381.00;;;21.50
15079;BMP180;6932;51.438;5.470;2022-09-28T10:49:19;99387.00;;;21.50
15079;BMP180;6932;51.438;5.470;2022-09-28T10:51:52;99393.00;;;21.50
15079;BMP180;6932;51.438;5.470;2022-09-28T10:54:23;99389.00;;;21.50
15079;BMP180;6932;51.438;5.470;2022-09-28T10:56:52;99382.00;;;21.60
15079;BMP180;6932;51.438;5.470;2022-09-28T11:01:57;99386.00;;;21.50
15079;BMP180;6932;51.438;5.470;2022-09-28T11:04:28;99388.00;;;21.50
15079;BMP180;6932;51.438;5.470;2022-09-28T11:06:55;99384.00;;;21.40
15079;BMP180;6932;51.438;5.470;2022-09-28T11:09:32;99382.00;;;21.40
15079;BMP180;6932;51.438;5.470;2022-09-28T11:12:02;99386.00;;;21.40
15079;BMP180;6932;51.438;5.470;2022-09-28T11:14:37;99394.00;;;21.40
15079;BMP180;6932;51.438;5.470;2022-09-28T11:17:26;99395.00;;;21.40
15079;BMP180;6932;51.438;5.470;2022-09-28T11:20:30;99387.00;;;21.40
15079;BMP180;6932;51.438;5.470;2022-09-28T11:25:40;99394.00;;;21.50
15079;BMP180;6932;51.438;5.470;2022-09-28T11:28:21;99395.00;;;21.60
15079;BMP180;6932;51.438;5.470;2022-09-28T11:30:52;99396.00;;;21.70
15079;BMP180;6932;51.438;5.470;2022-09-28T11:33:31;99386.00;;;21.70
15079;BMP180;6932;51.438;5.470;2022-09-28T11:39:14;99391.00;;;21.70
15079;BMP180;6932;51.438;5.470;2022-09-28T11:44:47;99384.00;;;21.70
15079;BMP180;6932;51.438;5.470;2022-09-28T11:51:14;99386.00;;;21.80
15079;BMP180;6932;51.438;5.470;2022-09-28T11:53:49;99389.00;;;21.80
15079;BMP180;6932;51.438;5.470;2022-09-28T11:56:43;99381.00;;;21.80
15079;BMP180;6932;51.438;5.470;2022-09-28T11:59:56;99380.00;;;21.70
15079;BMP180;6932;51.438;5.470;2022-09-28T12:02:34;99384.00;;;21.70
15079;BMP180;6932;51.438;5.470;2022-09-28T12:05:27;99390.00;;;21.70
15079;BMP180;6932;51.438;5.470;2022-09-28T12:08:15;99390.00;;;21.70
15079;BMP180;6932;51.438;5.470;2022-09-28T12:10:57;99388.00;;;21.70
15079;BMP180;6932;51.438;5.470;2022-09-28T12:13:37;99386.00;;;21.70
15079;BMP180;6932;51.438;5.470;2022-09-28T12:16:07;99388.00;;;21.60
15079;BMP180;6932;51.438;5.470;2022-09-28T12:18:48;99386.00;;;21.60
15079;BMP180;6932;51.438;5.470;2022-09-28T12:23:55;99391.00;;;21.60
15079;BMP180;6932;51.438;5.470;2022-09-28T12:26:30;99376.00;;;21.60
15079;BMP180;6932;51.438;5.470;2022-09-28T12:29:01;99374.00;;;21.50
15079;BMP180;6932;51.438;5.470;2022-09-28T12:31:38;99382.00;;;21.50
15079;BMP180;6932;51.438;5.470;2022-09-28T12:34:07;99383.00;;;21.40
15079;BMP180;6932;51.438;5.470;2022-09-28T12:45:42;99384.00;;;21.20
15079;BMP180;6932;51.438;5.470;2022-09-28T12:59:35;99386.00;;;21.20
15079;BMP180;6932;51.438;5.470;2022-09-28T13:05:29;99391.00;;;21.10
15079;BMP180;6932;51.438;5.470;2022-09-28T13:08:10;99392.00;;;20.90
15079;BMP180;6932;51.438;5.470;2022-09-28T13:16:58;99400.00;;;20.50
15079;BMP180;6932;51.438;5.470;2022-09-28T13:19:53;99400.00;;;20.40
15079;BMP180;6932;51.438;5.470;2022-09-28T13:22:36;99409.00;;;20.30
15079;BMP180;6932;51.438;5.470;2022-09-28T13:25:13;99412.00;;;20.10
15079;BMP180;6932;51.438;5.470;2022-09-28T13:27:57;99415.00;;;20.00
15079;BMP180;6932;51.438;5.470;2022-09-28T13:30:24;99421.00;;;19.90
15079;BMP180;6932;51.438;5.470;2022-09-28T13:32:54;99429.00;;;19.90
15079;BMP180;6932;51.438;5.470;2022-09-28T13:35:22;99415.00;;;19.90
15079;BMP180;6932;51.438;5.470;2022-09-28T13:49:22;99421.00;;;19.60
15079;BMP180;6932;51.438;5.470;2022-09-28T13:55:25;99414.00;;;19.30
15079;BMP180;6932;51.438;5.470;2022-09-28T14:00:42;99409.00;;;19.20
15079;BMP180;6932;51.438;5.470;2022-09-28T14:06:32;99420.00;;;19.10
15079;BMP180;6932;51.438;5.470;2022-09-28T14:12:00;99424.00;;;19.00
15079;BMP180;6932;51.438;5.470;2022-09-28T14:14:46;99420.00;;;19.00
15079;BMP180;6932;51.438;5.470;2022-09-28T14:20:00;99424.00;;;18.90
15079;BMP180;6932;51.438;5.470;2022-09-28T14:25:42;99419.00;;;18.80
15079;BMP180;6932;51.438;5.470;2022-09-28T14:28:36;99415.00;;;18.80
15079;BMP180;6932;51.438;5.470;2022-09-28T14:31:24;99420.00;;;18.80
15079;BMP180;6932;51.438;5.470;2022-09-28T14:34:01;99416.00;;;18.80
15079;BMP180;6932;51.438;5.470;2022-09-28T14:36:41;99412.00;;;18.80
15079;BMP180;6932;51.438;5.470;2022-09-28T14:39:33;99415.00;;;18.80
15079;BMP180;6932;51.438;5.470;2022-09-28T14:42:25;99425.00;;;18.80
15079;BMP180;6932;51.438;5.470;2022-09-28T14:47:43;99430.00;;;18.90
15079;BMP180;6932;51.438;5.470;2022-09-28T14:50:25;99424.00;;;19.00
15079;BMP180;6932;51.438;5.470;2022-09-28T14:53:19;99420.00;;;19.00
15079;BMP180;6932;51.438;5.470;2022-09-28T14:55:53;99423.00;;;19.00
15079;BMP180;6932;51.438;5.470;2022-09-28T14:58:27;99429.00;;;19.10
15079;BMP180;6932;51.438;5.470;2022-09-28T15:01:04;99430.00;;;19.10
15079;BMP180;6932;51.438;5.470;2022-09-28T15:03:33;99425.00;;;19.20
15079;BMP180;6932;51.438;5.470;2022-09-28T15:05:59;99421.00;;;19.20
15079;BMP180;6932;51.438;5.470;2022-09-28T15:08:36;99434.00;;;19.20
15079;BMP180;6932;51.438;5.470;2022-09-28T15:11:03;99434.00;;;19.30
15079;BMP180;6932;51.438;5.470;2022-09-28T15:13:29;99423.00;;;19.30
15079;BMP180;6932;51.438;5.470;2022-09-28T15:16:06;99436.00;;;19.40
15079;BMP180;6932;51.438;5.470;2022-09-28T15:21:18;99427.00;;;19.50
15079;BMP180;6932;51.438;5.470;2022-09-28T15:23:44;99431.00;;;19.50
15079;BMP180;6932;51.438;5.470;2022-09-28T15:26:24;99441.00;;;19.60
15079;BMP180;6932;51.438;5.470;2022-09-28T15:28:54;99436.00;;;19.60
15079;BMP180;6932;51.438;5.470;2022-09-28T15:31:26;99433.00;;;19.60
15079;BMP180;6932;51.438;5.470;2022-09-28T15:33:53;99433.00;;;19.60
15079;BMP180;6932;51.438;5.470;2022-09-28T15:36:43;99445.00;;;19.60
15079;BMP180;6932;51.438;5.470;2022-09-28T15:39:18;99441.00;;;19.60
15079;BMP180;6932;51.438;5.470;2022-09-28T15:41:48;99448.00;;;19.60
15079;BMP180;6932;51.438;5.470;2022-09-28T15:46:42;99459.00;;;19.50
15079;BMP180;6932;51.438;5.470;2022-09-28T15:49:56;99460.00;;;19.50
15079;BMP180;6932;51.438;5.470;2022-09-28T15:55:02;99462.00;;;19.40
15079;BMP180;6932;51.438;5.470;2022-09-28T15:57:38;99457.00;;;19.40
15079;BMP180;6932;51.438;5.470;2022-09-28T16:00:24;99459.00;;;19.40
15079;BMP180;6932;51.438;5.470;2022-09-28T16:03:30;99467.00;;;19.30
15079;BMP180;6932;51.438;5.470;2022-09-28T16:08:41;99472.00;;;19.30
15079;BMP180;6932;51.438;5.470;2022-09-28T16:11:24;99473.00;;;19.30
15079;BMP180;6932;51.438;5.470;2022-09-28T16:14:06;99473.00;;;19.20
15079;BMP180;6932;51.438;5.470;2022-09-28T16:16:49;99468.00;;;19.20
15079;BMP180;6932;51.438;5.470;2022-09-28T16:19:27;99472.00;;;19.20
15079;BMP180;6932;51.438;5.470;2022-09-28T16:21:56;99464.00;;;19.10
15079;BMP180;6932;51.438;5.470;2022-09-28T16:24:27;99469.00;;;19.10
15079;BMP180;6932;51.438;5.470;2022-09-28T16:27:50;99472.00;;;19.10
15079;BMP180;6932;51.438;5.470;2022-09-28T16:30:30;99476.00;;;19.00
15079;BMP180;6932;51.438;5.470;2022-09-28T16:35:31;99473.00;;;19.00
15079;BMP180;6932;51.438;5.470;2022-09-28T16:40:37;99476.00;;;19.00
15079;BMP180;6932;51.438;5.470;2022-09-28T16:43:05;99482.00;;;19.00
15079;BMP180;6932;51.438;5.470;2022-09-28T16:45:33;99481.00;;;19.00
15079;BMP180;6932;51.438;5.470;2022-09-28T16:48:00;99484.00;;;18.90
15079;BMP180;6932;51.438;5.470;2022-09-28T16:50:27;99486.00;;;18.90
15079;BMP180;6932;51.438;5.470;2022-09-28T16:53:14;99484.00;;;18.90
15079;BMP180;6932;51.438;5.470;2022-09-28T16:56:01;99489.00;;;18.90
15079;BMP180;6932;51.438;5.470;2022-09-28T16:58:27;99492.00;;;18.90
15079;BMP180;6932;51.438;5.470;2022-09-28T17:00:54;99494.00;;;18.90
15079;BMP180;6932;51.438;5.470;2022-09-28T17:03:20;99502.00;;;18.90
15079;BMP180;6932;51.438;5.470;2022-09-28T17:05:48;99502.00;;;18.90
15079;BMP180;6932;51.438;5.470;2022-09-28T17:08:17;99498.00;;;18.90
15079;BMP180;6932;51.438;5.470;2022-09-28T17:10:53;99498.00;;;18.90
15079;BMP180;6932;51.438;5.470;2022-09-28T17:13:25;99494.00;;;18.80
15079;BMP180;6932;51.438;5.470;2022-09-28T17:15:56;99509.00;;;18.80
15079;BMP180;6932;51.438;5.470;2022-09-28T17:18:22;99500.00;;;18.70
15079;BMP180;6932;51.438;5.470;2022-09-28T17:20:51;99504.00;;;18.70